Time;durP1;ratioP1;P1;durP2;ratioP2;P2;SDS_P1;SDS_P2;PMS_P1;PMS_P2;Temp;Humidity;BMP_temperature;BMP_pressure;BME280_temperature;BME280_humidity;BME280_pressure;Samples;Min_cycle;Max_cycle;Signal;HPM_P1;HPM_P2
2022/09/22 00:00:58;;;;;;;0.88;0.80;;;5.00;99.90;;;;;;4996972;28;20457;-74
2022/09/22 00:03:24;;;;;;;1.27;1.10;;;4.20;99.90;;;;;;4997437;28;20032;-74
2022/09/22 00:05:59;;;;;;;0.60;0.60;;;4.10;99.90;;;;;;4995773;28;20038;-74
2022/09/22 00:08:25;;;;;;;2.15;0.40;;;5.00;99.90;;;;;;4999758;28;20474;-74
2022/09/22 00:11:15;;;;;;;0.63;0.63;;;4.20;99.90;;;;;;4997642;28;20482;-74
2022/09/22 00:13:43;;;;;;;0.57;0.57;;;4.20;99.90;;;;;;4997853;28;20034;-74
2022/09/22 00:16:11;;;;;;;1.38;0.50;;;4.20;99.90;;;;;;4998398;28;20023;-74
2022/09/22 00:18:37;;;;;;;0.50;0.50;;;4.20;99.90;;;;;;4994964;28;20029;-74
2022/09/22 00:21:12;;;;;;;0.55;0.55;;;4.20;99.90;;;;;;4997740;28;20080;-74
2022/09/22 00:23:39;;;;;;;1.35;0.80;;;4.20;99.90;;;;;;5003178;28;20019;-74
2022/09/22 00:26:20;;;;;;;5.97;1.52;;;4.20;99.90;;;;;;4999331;28;20048;-74
2022/09/22 00:28:47;;;;;;;1.08;0.25;;;4.10;99.90;;;;;;5016142;28;20022;-74
2022/09/22 00:31:16;;;;;;;1.38;0.60;;;4.10;99.90;;;;;;4995334;28;20058;-74
2022/09/22 00:33:43;;;;;;;0.50;0.50;;;3.90;99.90;;;;;;4996672;28;20049;-75
2022/09/22 00:36:10;;;;;;;3.85;1.67;;;3.90;99.90;;;;;;4999018;28;20022;-74
2022/09/22 00:38:37;;;;;;;0.50;0.50;;;3.80;99.90;;;;;;4994738;28;20045;-75
2022/09/22 00:41:03;;;;;;;0.30;0.30;;;3.90;99.90;;;;;;4996365;28;20038;-74
2022/09/22 00:43:33;;;;;;;0.50;0.50;;;4.00;99.90;;;;;;4997547;28;20029;-74
2022/09/22 00:46:27;;;;;;;0.80;0.80;;;4.00;99.90;;;;;;4999949;28;20136;-74
2022/09/22 00:49:04;;;;;;;0.43;0.43;;;4.00;99.90;;;;;;4992537;28;20491;-74
2022/09/22 00:51:34;;;;;;;0.38;0.38;;;3.90;99.90;;;;;;4990717;28;20037;-74
2022/09/22 00:54:03;;;;;;;1.20;1.20;;;4.80;99.90;;;;;;5004883;28;20055;-74
2022/09/22 00:56:42;;;;;;;1.50;0.65;;;4.00;99.90;;;;;;4997449;28;20026;-74
2022/09/22 00:59:14;;;;;;;1.20;1.17;;;4.00;99.90;;;;;;5012777;28;20045;-74
2022/09/22 01:01:40;;;;;;;0.80;0.55;;;4.00;99.90;;;;;;4999402;28;20038;-75
2022/09/22 01:04:06;;;;;;;1.27;1.17;;;4.00;99.90;;;;;;4998378;28;20061;-74
2022/09/22 01:06:34;;;;;;;0.50;0.50;;;4.90;99.90;;;;;;4999905;28;20037;-75
2022/09/22 01:09:01;;;;;;;0.30;0.30;;;4.20;99.90;;;;;;5003863;28;20022;-76
2022/09/22 01:11:28;;;;;;;2.17;0.55;;;3.90;99.90;;;;;;5010820;28;20837;-76
2022/09/22 01:14:15;;;;;;;0.80;0.80;;;3.90;99.90;;;;;;5003101;28;20029;-75
2022/09/22 01:16:53;;;;;;;0.73;0.73;;;3.90;99.90;;;;;;5012608;28;20038;-75
2022/09/22 01:19:40;;;;;;;0.80;0.80;;;4.20;99.90;;;;;;5009899;28;20026;-75
2022/09/22 01:22:28;;;;;;;2.90;1.58;;;3.90;99.90;;;;;;5015007;28;20029;-76
2022/09/22 01:25:00;;;;;;;0.40;0.40;;;3.90;99.90;;;;;;4996432;28;20037;-75
2022/09/22 01:27:58;;;;;;;0.65;0.65;;;4.10;99.90;;;;;;5016138;28;20040;-75
2022/09/22 01:30:35;;;;;;;0.80;0.47;;;3.70;99.90;;;;;;5011462;28;20087;-75
2022/09/22 01:33:00;;;;;;;0.60;0.60;;;3.60;99.90;;;;;;5011254;28;20026;-75
2022/09/22 01:35:41;;;;;;;0.63;0.63;;;3.60;99.90;;;;;;5011059;28;20029;-76
2022/09/22 01:38:49;;;;;;;0.60;0.60;;;3.80;99.90;;;;;;5011154;28;20022;-75
2022/09/22 01:41:23;;;;;;;3.25;0.85;;;3.70;99.90;;;;;;4992294;28;20046;-75
2022/09/22 01:43:55;;;;;;;0.85;0.85;;;3.10;99.90;;;;;;5011190;28;20030;-75
2022/09/22 01:46:36;;;;;;;0.45;0.45;;;4.10;99.90;;;;;;5010103;28;20026;-74
2022/09/22 01:49:07;;;;;;;1.20;1.10;;;3.70;99.90;;;;;;5010157;28;20033;-75
2022/09/22 01:51:48;;;;;;;0.82;0.82;;;3.50;99.90;;;;;;5010125;28;20064;-75
2022/09/22 01:54:26;;;;;;;1.45;0.43;;;3.50;99.90;;;;;;5013728;28;20025;-74
2022/09/22 01:57:04;;;;;;;0.70;0.70;;;3.50;99.90;;;;;;5012881;28;20029;-75
2022/09/22 01:59:36;;;;;;;1.00;0.57;;;3.50;99.90;;;;;;5010772;28;20030;-74
2022/09/22 02:02:34;;;;;;;0.82;0.82;;;3.40;99.90;;;;;;5013033;28;20153;-74
2022/09/22 02:05:04;;;;;;;0.55;0.50;;;3.50;99.90;;;;;;4996962;28;20512;-75
2022/09/22 02:07:34;;;;;;;1.10;1.02;;;3.40;99.90;;;;;;5013169;28;20017;-75
2022/09/22 02:10:04;;;;;;;0.40;0.40;;;3.40;99.90;;;;;;5009308;28;20029;-75
2022/09/22 02:12:30;;;;;;;0.90;0.90;;;3.40;99.90;;;;;;5013102;28;20040;-75
2022/09/22 02:14:55;;;;;;;4.32;1.27;;;3.40;99.90;;;;;;5013389;28;20026;-74
2022/09/22 02:17:21;;;;;;;0.65;0.65;;;3.30;99.90;;;;;;5008621;28;20021;-75
2022/09/22 02:19:47;;;;;;;2.42;0.90;;;3.40;99.90;;;;;;5007989;28;20065;-74
2022/09/22 02:22:13;;;;;;;0.55;0.55;;;4.70;99.90;;;;;;5011031;28;20496;-74
2022/09/22 02:24:44;;;;;;;1.05;0.95;;;3.40;99.90;;;;;;5012471;28;20018;-74
2022/09/22 02:27:22;;;;;;;0.60;0.60;;;3.30;99.90;;;;;;5027331;28;20035;-75
2022/09/22 02:29:57;;;;;;;0.52;0.52;;;4.30;99.90;;;;;;5010417;28;20037;-75
2022/09/22 02:32:24;;;;;;;0.52;0.52;;;3.20;99.90;;;;;;5010520;28;20115;-74
2022/09/22 02:34:52;;;;;;;0.77;0.77;;;3.10;99.90;;;;;;5009284;28;20522;-75
2022/09/22 02:37:21;;;;;;;1.05;0.82;;;4.20;99.90;;;;;;5011599;28;20022;-75
2022/09/22 02:39:50;;;;;;;0.32;0.32;;;3.10;99.90;;;;;;5010824;28;20030;-74
2022/09/22 02:42:27;;;;;;;0.82;0.57;;;3.20;99.90;;;;;;5011022;28;20034;-75
2022/09/22 02:45:07;;;;;;;0.82;0.68;;;3.20;99.90;;;;;;4999009;28;20036;-74
2022/09/22 02:47:39;;;;;;;0.40;0.40;;;3.20;99.90;;;;;;5006967;28;20095;-74
2022/09/22 02:50:09;;;;;;;0.40;0.40;;;3.20;99.90;;;;;;5008929;28;20030;-74
2022/09/22 02:52:37;;;;;;;0.70;0.70;;;3.20;99.90;;;;;;5008663;28;20053;-74
2022/09/22 02:55:04;;;;;;;0.90;0.57;;;3.40;99.90;;;;;;5026532;28;20029;-74
2022/09/22 02:57:29;;;;;;;0.30;0.30;;;3.10;99.90;;;;;;5010265;28;20049;-74
2022/09/22 02:59:55;;;;;;;0.45;0.45;;;2.90;99.90;;;;;;5007401;28;20180;-75
2022/09/22 03:02:20;;;;;;;0.80;0.80;;;3.00;99.90;;;;;;5008241;28;20524;-75
2022/09/22 03:04:46;;;;;;;3.00;0.55;;;3.00;99.90;;;;;;5022394;28;20029;-74
2022/09/22 03:07:12;;;;;;;0.68;0.68;;;3.10;99.90;;;;;;5008055;28;20183;-74
2022/09/22 03:09:37;;;;;;;2.05;0.65;;;3.10;99.90;;;;;;5010191;28;20486;-74
2022/09/22 03:12:03;;;;;;;0.82;0.65;;;3.50;99.90;;;;;;5009150;28;20159;-74
2022/09/22 03:14:29;;;;;;;4.95;0.98;;;3.00;99.90;;;;;;5008379;28;20049;-74
2022/09/22 03:16:54;;;;;;;0.55;0.43;;;2.90;99.90;;;;;;5009467;28;20034;-75
2022/09/22 03:19:20;;;;;;;0.52;0.52;;;2.70;99.90;;;;;;5008999;28;20084;-74
2022/09/22 03:21:46;;;;;;;0.65;0.52;;;2.80;99.90;;;;;;5009455;28;20045;-74
2022/09/22 03:24:11;;;;;;;0.55;0.55;;;2.90;99.90;;;;;;5026282;28;20478;-75
2022/09/22 03:26:37;;;;;;;0.35;0.35;;;3.20;99.90;;;;;;5025025;28;20125;-74
2022/09/22 03:29:03;;;;;;;1.25;0.75;;;3.80;99.90;;;;;;5007269;28;20036;-75
2022/09/22 03:31:28;;;;;;;1.15;0.68;;;3.10;99.90;;;;;;5008573;28;20057;-74
2022/09/22 03:33:54;;;;;;;3.35;1.20;;;3.30;99.90;;;;;;5011577;28;20025;-74
2022/09/22 03:36:20;;;;;;;0.52;0.38;;;3.10;99.90;;;;;;5011947;28;20026;-74
2022/09/22 03:38:46;;;;;;;3.92;0.80;;;3.10;99.90;;;;;;5013103;28;20026;-74
2022/09/22 03:41:11;;;;;;;1.15;0.60;;;3.00;99.90;;;;;;5013679;28;20041;-74
2022/09/22 03:43:37;;;;;;;0.40;0.40;;;3.30;99.90;;;;;;5011078;28;20055;-75
2022/09/22 03:46:03;;;;;;;1.13;0.73;;;3.80;99.90;;;;;;5012705;28;20506;-75
2022/09/22 03:48:30;;;;;;;0.40;0.40;;;3.00;99.90;;;;;;5010911;28;20045;-75
2022/09/22 03:50:56;;;;;;;1.73;0.90;;;3.20;99.90;;;;;;5010553;28;20532;-74
2022/09/22 03:53:23;;;;;;;0.80;0.80;;;3.40;99.90;;;;;;5027491;28;20474;-74
2022/09/22 03:55:50;;;;;;;0.65;0.65;;;3.10;99.90;;;;;;5013334;28;20069;-74
2022/09/22 03:58:19;;;;;;;0.50;0.50;;;3.40;99.90;;;;;;5012856;28;20532;-75
2022/09/22 04:00:46;;;;;;;0.35;0.35;;;3.30;99.90;;;;;;5012660;28;20401;-74
2022/09/22 04:03:12;;;;;;;1.23;0.70;;;3.10;99.90;;;;;;5012757;28;20034;-74
2022/09/22 04:05:38;;;;;;;0.52;0.43;;;3.00;99.90;;;;;;5026342;28;20026;-74
2022/09/22 04:08:04;;;;;;;0.50;0.50;;;;;;;;;;5010311;28;20034;-74
2022/09/22 04:10:30;;;;;;;2.65;1.02;;;3.10;99.90;;;;;;5011174;28;20049;-74
2022/09/22 04:12:55;;;;;;;3.00;1.48;;;4.00;99.90;;;;;;5010494;28;20072;-74
2022/09/22 04:15:21;;;;;;;0.65;0.65;;;3.00;99.90;;;;;;5006109;28;20519;-74
2022/09/22 04:17:47;;;;;;;1.52;0.80;;;1.40;99.90;;;;;;4991366;28;20030;-74
2022/09/22 04:20:13;;;;;;;0.75;0.75;;;3.60;99.90;;;;;;4991056;28;20067;-75
2022/09/22 04:22:39;;;;;;;5.40;1.52;;;2.90;99.90;;;;;;4993264;28;20026;-74
2022/09/22 04:25:06;;;;;;;0.82;0.82;;;2.90;99.90;;;;;;4994402;28;20105;-75
2022/09/22 04:27:32;;;;;;;4.07;2.13;;;2.80;99.90;;;;;;4991087;28;20031;-74
2022/09/22 04:29:59;;;;;;;1.83;1.65;;;2.90;99.90;;;;;;4989428;28;20026;-75
2022/09/22 04:32:25;;;;;;;1.02;1.02;;;3.30;99.90;;;;;;4991301;28;20043;-74
2022/09/22 04:34:50;;;;;;;0.82;0.70;;;2.20;99.90;;;;;;5009147;28;20783;-75
2022/09/22 04:37:16;;;;;;;1.13;1.02;;;3.60;99.90;;;;;;4994493;28;20470;-74
2022/09/22 04:39:42;;;;;;;0.47;0.47;;;2.70;99.90;;;;;;4995231;28;20023;-75
2022/09/22 04:42:07;;;;;;;0.40;0.40;;;3.20;99.90;;;;;;4991213;28;20034;-75
2022/09/22 04:44:33;;;;;;;1.05;1.05;;;2.10;99.90;;;;;;4989734;28;20150;-75
2022/09/22 04:46:59;;;;;;;1.17;1.08;;;2.90;99.90;;;;;;4991262;28;20337;-75
2022/09/22 04:49:25;;;;;;;1.23;0.60;;;2.50;99.90;;;;;;5005859;28;20061;-76
2022/09/22 04:51:50;;;;;;;0.73;0.73;;;3.10;99.90;;;;;;4992365;28;20026;-75
2022/09/22 04:54:16;;;;;;;0.68;0.68;;;2.70;99.90;;;;;;4994483;28;20049;-75
2022/09/22 04:56:42;;;;;;;1.33;0.70;;;2.70;99.90;;;;;;4991186;28;20023;-74
2022/09/22 04:59:08;;;;;;;1.33;1.25;;;2.60;99.90;;;;;;4989598;28;20030;-75
2022/09/22 05:01:35;;;;;;;1.00;0.68;;;3.20;99.90;;;;;;4991023;28;20093;-75
2022/09/22 05:04:01;;;;;;;1.30;1.02;;;2.50;99.90;;;;;;4989457;28;20041;-75
2022/09/22 05:06:26;;;;;;;3.13;1.42;;;2.30;99.90;;;;;;4988804;28;20027;-75
2022/09/22 05:08:52;;;;;;;2.40;0.75;;;2.30;99.90;;;;;;4992472;28;20319;-75
2022/09/22 05:11:22;;;;;;;1.50;1.25;;;3.10;99.90;;;;;;4994087;28;20029;-74
2022/09/22 05:13:48;;;;;;;;;;;2.40;99.90;;;;;;4990395;28;20022;-74
2022/09/22 05:16:14;;;;;;;0.77;0.77;;;2.30;99.90;;;;;;5005152;28;20388;-74
2022/09/22 05:18:40;;;;;;;4.00;1.42;;;2.80;99.90;;;;;;5008110;28;20133;-74
2022/09/22 05:21:06;;;;;;;1.05;0.95;;;3.80;99.90;;;;;;5009215;28;20546;-76
2022/09/22 05:23:31;;;;;;;0.80;0.80;;;3.00;99.90;;;;;;5011489;28;20018;-74
2022/09/22 05:25:57;;;;;;;0.70;0.70;;;2.20;99.90;;;;;;5011465;28;20026;-74
2022/09/22 05:28:23;;;;;;;0.45;0.45;;;2.60;99.90;;;;;;4990418;28;20022;-74
2022/09/22 05:30:50;;;;;;;1.60;0.75;;;2.20;99.90;;;;;;4989502;28;20053;-74
2022/09/22 05:33:16;;;;;;;0.40;0.40;;;2.40;99.90;;;;;;4989237;28;20030;-74
2022/09/22 05:35:42;;;;;;;2.15;1.23;;;2.70;99.90;;;;;;4988264;28;20019;-74
2022/09/22 05:38:08;;;;;;;1.75;1.00;;;2.20;99.90;;;;;;5006901;28;20367;-74
2022/09/22 05:40:33;;;;;;;0.93;0.93;;;3.30;99.90;;;;;;4994436;28;20116;-75
2022/09/22 05:42:59;;;;;;;0.80;0.77;;;2.50;99.90;;;;;;5014182;28;20041;-74
2022/09/22 05:45:24;;;;;;;1.52;1.42;;;2.20;99.90;;;;;;5015179;28;20030;-74
2022/09/22 05:47:51;;;;;;;1.48;1.38;;;2.20;99.90;;;;;;5019881;28;20309;-75
2022/09/22 05:50:18;;;;;;;1.33;1.13;;;2.60;99.90;;;;;;5013667;28;20449;-76
2022/09/22 05:52:43;;;;;;;0.85;0.80;;;2.30;99.90;;;;;;5015326;28;20072;-76
2022/09/22 05:55:10;;;;;;;0.80;0.80;;;2.80;99.90;;;;;;5018292;28;20478;-76
2022/09/22 05:57:35;;;;;;;0.95;0.70;;;2.50;99.90;;;;;;5014433;28;20021;-76
2022/09/22 06:00:03;;;;;;;0.73;0.73;;;2.90;99.90;;;;;;5008588;28;20422;-76
2022/09/22 06:02:29;;;;;;;3.05;1.40;;;2.60;99.90;;;;;;5009286;28;20025;-75
2022/09/22 06:04:54;;;;;;;0.80;0.80;;;2.70;99.90;;;;;;5011245;28;20064;-75
2022/09/22 06:07:21;;;;;;;0.95;0.95;;;2.90;99.90;;;;;;5010410;28;20452;-77
2022/09/22 06:09:47;;;;;;;2.13;1.98;;;3.00;99.90;;;;;;5010985;28;20065;-77
2022/09/22 06:12:14;;;;;;;2.20;1.80;;;4.00;99.90;;;;;;5010938;28;20033;-77
2022/09/22 06:14:40;;;;;;;2.88;1.73;;;;;;;;;;5007763;28;20459;-77
2022/09/22 06:17:10;;;;;;;1.70;1.60;;;3.30;99.90;;;;;;5024874;28;20034;-76
2022/09/22 06:19:37;;;;;;;2.13;0.80;;;3.40;99.90;;;;;;5007936;28;20470;-76
2022/09/22 06:22:03;;;;;;;1.58;1.48;;;3.50;99.90;;;;;;5009155;28;20044;-77
2022/09/22 06:24:29;;;;;;;0.98;0.95;;;3.40;99.90;;;;;;5010826;28;20026;-76
2022/09/22 06:26:55;;;;;;;1.75;1.00;;;;;;;;;;5011930;28;20076;-77
2022/09/22 06:29:21;;;;;;;4.95;2.50;;;3.50;99.90;;;;;;5009215;28;20026;-77
2022/09/22 06:31:47;;;;;;;1.15;0.85;;;3.60;99.90;;;;;;5008189;28;20058;-77
2022/09/22 06:34:13;;;;;;;0.90;0.73;;;3.70;99.90;;;;;;5008554;28;20817;-77
2022/09/22 06:36:41;;;;;;;1.65;0.90;;;3.80;99.90;;;;;;5005523;28;20096;-79
2022/09/22 06:39:07;;;;;;;2.88;1.48;;;3.90;99.90;;;;;;5008659;28;20025;-77
2022/09/22 06:41:33;;;;;;;7.85;2.08;;;3.90;99.90;;;;;;5008409;28;20442;-80
2022/09/22 06:43:59;;;;;;;22.88;11.30;;;4.00;99.90;;;;;;5002044;28;20650;-78
2022/09/22 06:46:26;;;;;;;7.60;3.63;;;4.20;99.90;;;;;;4990694;28;20037;-77
2022/09/22 06:48:56;;;;;;;2.67;2.35;;;4.50;99.90;;;;;;4990531;28;20026;-78
2022/09/22 06:51:31;;;;;;;1.67;1.55;;;4.70;99.90;;;;;;4990390;28;20022;-78
2022/09/22 06:53:58;;;;;;;2.83;2.58;;;4.90;99.90;;;;;;4990745;28;20491;-78
2022/09/22 06:56:25;;;;;;;3.05;2.85;;;5.00;99.90;;;;;;4992783;28;20027;-77
2022/09/22 06:58:57;;;;;;;3.45;1.42;;;5.20;99.90;;;;;;4991676;28;20546;-77
2022/09/22 07:01:23;;;;;;;5.32;1.60;;;5.30;99.90;;;;;;4991272;28;20038;-79
2022/09/22 07:03:51;;;;;;;6.40;3.13;;;5.50;99.90;;;;;;4997467;28;20026;-79
2022/09/22 07:06:17;;;;;;;1.67;1.58;;;5.70;99.90;;;;;;4989870;28;20019;-81
2022/09/22 07:08:46;;;;;;;2.30;2.17;;;5.80;99.90;;;;;;4992454;28;20022;-79
2022/09/22 07:11:12;;;;;;;2.30;1.85;;;5.80;99.90;;;;;;4993587;28;20127;-78
2022/09/22 07:13:40;;;;;;;5.28;2.78;;;5.90;99.90;;;;;;4989910;28;20430;-78
2022/09/22 07:16:07;;;;;;;3.10;2.55;;;6.90;99.90;;;;;;5007923;28;20076;-78
2022/09/22 07:18:34;;;;;;;2.42;2.22;;;6.00;99.90;;;;;;5010364;28;20048;-77
2022/09/22 07:21:15;;;;;;;4.03;3.60;;;6.20;99.90;;;;;;5010487;28;20035;-77
2022/09/22 07:23:43;;;;;;;2.42;1.83;;;6.30;99.90;;;;;;5010234;28;20116;-76
2022/09/22 07:26:13;;;;;;;2.05;1.75;;;6.50;99.90;;;;;;5016529;28;20034;-77
2022/09/22 07:28:43;;;;;;;2.47;2.28;;;6.60;99.90;;;;;;5007501;28;20403;-76
2022/09/22 07:31:14;;;;;;;7.80;1.98;;;6.70;99.90;;;;;;5013357;28;20053;-77
2022/09/22 07:33:42;;;;;;;2.38;2.17;;;6.70;99.90;;;;;;5015755;28;20026;-77
2022/09/22 07:36:13;;;;;;;1.92;1.85;;;6.70;99.90;;;;;;5010430;28;20021;-77
2022/09/22 07:38:41;;;;;;;2.28;2.08;;;6.70;99.90;;;;;;5010132;28;20018;-77
2022/09/22 07:41:12;;;;;;;5.47;3.60;;;6.80;99.90;;;;;;5011076;28;20065;-77
2022/09/22 07:43:39;;;;;;;2.42;2.20;;;6.90;99.90;;;;;;5017683;28;20018;-78
2022/09/22 07:46:05;;;;;;;2.63;1.73;;;7.00;99.90;;;;;;5004786;28;20026;-77
2022/09/22 07:48:40;;;;;;;2.97;1.50;;;7.20;99.90;;;;;;5006758;28;20050;-77
2022/09/22 07:51:19;;;;;;;2.17;1.83;;;7.30;99.90;;;;;;5006165;28;20509;-77
2022/09/22 07:54:06;;;;;;;1.85;1.75;;;7.50;99.90;;;;;;5006501;28;20029;-78
2022/09/22 07:56:32;;;;;;;2.25;1.50;;;7.50;99.90;;;;;;5005621;28;20069;-78
2022/09/22 07:59:03;;;;;;;3.50;1.75;;;7.60;99.90;;;;;;5006217;28;20115;-76
2022/09/22 08:01:33;;;;;;;1.88;1.65;;;7.60;99.90;;;;;;5003223;28;20037;-76
2022/09/22 08:03:59;;;;;;;1.88;1.77;;;7.70;99.90;;;;;;5005650;28;20358;-79
2022/09/22 08:06:26;;;;;;;1.65;1.50;;;7.80;99.90;;;;;;5013603;28;20037;-78
2022/09/22 08:08:55;;;;;;;4.00;2.25;;;8.00;99.90;;;;;;5019545;28;20331;-78
2022/09/22 08:11:26;;;;;;;1.92;1.40;;;7.90;99.90;;;;;;5019060;28;20033;-78
2022/09/22 08:13:58;;;;;;;1.10;0.98;;;8.20;99.90;;;;;;5012334;28;20021;-76
2022/09/22 08:16:27;;;;;;;2.45;1.45;;;8.10;99.90;;;;;;5012646;28;20061;-77
2022/09/22 08:18:57;;;;;;;3.35;2.15;;;8.20;99.90;;;;;;5018865;28;20085;-78
2022/09/22 08:21:24;;;;;;;2.53;1.40;;;8.40;99.90;;;;;;5019249;28;20034;-77
2022/09/22 08:23:51;;;;;;;2.40;1.75;;;8.70;99.90;;;;;;5016601;28;20026;-77
2022/09/22 08:26:18;;;;;;;2.33;1.30;;;8.90;99.90;;;;;;5011410;28;20596;-77
2022/09/22 08:28:46;;;;;;;0.93;0.93;;;9.00;99.90;;;;;;5010557;28;20054;-77
2022/09/22 08:31:18;;;;;;;2.60;1.80;;;9.10;99.90;;;;;;5008500;28;20168;-77
2022/09/22 08:33:44;;;;;;;2.15;1.23;;;9.30;99.90;;;;;;5006984;28;20041;-79
2022/09/22 08:36:10;;;;;;;1.15;1.05;;;9.60;99.90;;;;;;5008570;28;20029;-78
2022/09/22 08:38:37;;;;;;;1.10;1.00;;;9.90;99.90;;;;;;5009960;28;20034;-78
2022/09/22 08:41:28;;;;;;;1.33;0.88;;;9.50;99.90;;;;;;5008841;28;20048;-78
2022/09/22 08:44:10;;;;;;;0.80;0.77;;;10.80;99.90;;;;;;5009341;28;20030;-77
2022/09/22 08:46:44;;;;;;;1.90;0.73;;;11.10;99.90;;;;;;5008810;28;20033;-78
2022/09/22 08:52:54;;;;;;;2.10;1.33;;;11.30;99.90;;;;;;5007823;28;20057;-78
2022/09/22 08:55:29;;;;;;;3.95;1.25;;;11.20;99.90;;;;;;5010043;28;20049;-77
2022/09/22 08:58:26;;;;;;;1.02;0.90;;;11.10;99.90;;;;;;5008133;28;20452;-78
2022/09/22 09:01:12;;;;;;;1.02;1.02;;;11.00;99.90;;;;;;5000459;28;20103;-78
2022/09/22 09:03:51;;;;;;;1.38;1.17;;;11.40;99.90;;;;;;5009250;28;20030;-78
2022/09/22 09:06:38;;;;;;;1.85;1.08;;;11.00;99.90;;;;;;5009093;28;20328;-78
2022/09/22 09:09:04;;;;;;;0.68;0.68;;;11.20;99.90;;;;;;5011079;28;20068;-77
2022/09/22 09:11:56;;;;;;;0.60;0.60;;;11.20;99.90;;;;;;5011387;28;20429;-78
2022/09/22 09:14:29;;;;;;;1.85;1.33;;;11.30;99.90;;;;;;5007035;28;20026;-77
2022/09/22 09:17:06;;;;;;;3.22;0.82;;;11.30;99.90;;;;;;4988286;28;20030;-78
2022/09/22 09:19:52;;;;;;;0.70;0.70;;;11.40;99.90;;;;;;4989568;28;20038;-77
2022/09/22 09:22:26;;;;;;;2.03;0.75;;;11.60;99.90;;;;;;4989035;28;20049;-77
2022/09/22 09:25:24;;;;;;;4.25;0.82;;;11.70;99.90;;;;;;4991709;28;20027;-78
2022/09/22 09:27:58;;;;;;;1.27;0.88;;;11.80;99.90;;;;;;5004515;28;20125;-78
2022/09/22 09:30:24;;;;;;;1.08;0.68;;;12.00;99.90;;;;;;4988347;28;20023;-78
2022/09/22 09:33:10;;;;;;;2.22;0.80;;;12.00;99.90;;;;;;4988408;28;20490;-76
2022/09/22 09:35:51;;;;;;;0.63;0.63;;;11.70;99.90;;;;;;4988964;28;20030;-78
2022/09/22 09:38:22;;;;;;;1.10;1.10;;;12.30;99.90;;;;;;4989877;28;20033;-79
2022/09/22 09:40:54;;;;;;;0.98;0.90;;;12.30;99.90;;;;;;4991348;28;20383;-77
2022/09/22 09:43:26;;;;;;;1.13;0.70;;;12.60;99.90;;;;;;5003447;28;20027;-78
2022/09/22 09:46:27;;;;;;;0.50;0.50;;;12.60;99.90;;;;;;4989337;28;20463;-78
2022/09/22 09:49:10;;;;;;;0.60;0.60;;;12.60;99.90;;;;;;4980076;28;20034;-78
2022/09/22 09:51:41;;;;;;;2.10;1.08;;;12.80;99.90;;;;;;4992422;28;20026;-77
2022/09/22 09:54:11;;;;;;;0.80;0.80;;;13.00;99.90;;;;;;4995079;28;20309;-77
2022/09/22 09:57:08;;;;;;;0.93;0.75;;;13.00;99.90;;;;;;4992443;28;20054;-78
2022/09/22 10:02:34;;;;;;;0.57;0.57;;;13.20;99.90;;;;;;4988550;28;20125;-77
2022/09/22 10:05:03;;;;;;;0.73;0.73;;;13.30;99.90;;;;;;5004043;28;20033;-77
2022/09/22 10:07:30;;;;;;;;;;;13.40;99.90;;;;;;4989296;28;20458;-77
2022/09/22 10:10:42;;;;;;;0.73;0.60;;;13.50;99.90;;;;;;4990573;28;19933;-78
2022/09/22 10:13:07;;;;;;;1.55;1.10;;;13.70;99.90;;;;;;4987133;28;20049;-77
2022/09/22 10:15:39;;;;;;;2.78;2.35;;;13.70;99.90;;;;;;5004463;28;20041;-78
2022/09/22 10:18:23;;;;;;;1.88;0.50;;;13.70;99.90;;;;;;5006423;28;20018;-77
2022/09/22 10:21:14;;;;;;;0.85;0.52;;;14.10;99.90;;;;;;5006148;28;20502;-77
2022/09/22 10:23:44;;;;;;;0.60;0.60;;;14.00;99.90;;;;;;4986641;28;20138;-78
2022/09/22 10:26:29;;;;;;;0.55;0.55;;;14.10;99.90;;;;;;4990248;28;20026;-78
2022/09/22 10:29:18;;;;;;;0.40;0.40;;;14.20;99.90;;;;;;4987014;28;20030;-78
2022/09/22 10:32:14;;;;;;;0.80;0.40;;;14.30;99.90;;;;;;4988433;28;20061;-78
2022/09/22 10:34:50;;;;;;;0.88;0.68;;;14.40;99.90;;;;;;4990689;28;20038;-78
2022/09/22 10:37:23;;;;;;;0.30;0.30;;;14.50;99.90;;;;;;4987091;28;20292;-78
2022/09/22 10:39:54;;;;;;;0.85;0.70;;;14.60;99.90;;;;;;4990393;28;20026;-78
2022/09/22 10:42:26;;;;;;;1.73;0.77;;;14.70;99.90;;;;;;4988061;28;20097;-78
2022/09/22 10:45:00;;;;;;;0.40;0.40;;;14.80;99.90;;;;;;4988428;28;20033;-78
2022/09/22 10:47:31;;;;;;;0.50;0.50;;;14.90;99.90;;;;;;5004376;28;20030;-78
2022/09/22 10:50:02;;;;;;;0.50;0.50;;;14.90;99.90;;;;;;5006800;28;20084;-78
2022/09/22 10:52:54;;;;;;;1.10;0.73;;;15.00;99.90;;;;;;5005851;28;20030;-78
2022/09/22 10:55:34;;;;;;;0.50;0.40;;;15.10;99.90;;;;;;5003326;28;20034;-78
2022/09/22 10:58:03;;;;;;;0.52;0.52;;;15.20;99.90;;;;;;5008273;28;20482;-78
2022/09/22 11:00:33;;;;;;;0.40;0.40;;;15.30;99.90;;;;;;5007349;28;20321;-79
2022/09/22 11:03:26;;;;;;;1.05;0.80;;;15.40;99.90;;;;;;5007513;28;20030;-79
2022/09/22 11:12:41;;;;;;;0.30;0.30;;;15.70;99.90;;;;;;5007993;28;20037;-78
2022/09/22 11:15:07;;;;;;;2.38;0.80;;;15.70;99.90;;;;;;5003693;28;20104;-78
2022/09/22 11:17:41;;;;;;;3.35;1.48;;;15.80;99.90;;;;;;5007157;28;20026;-78
2022/09/22 11:20:32;;;;;;;0.82;0.63;;;15.80;99.90;;;;;;5006635;28;20470;-78
2022/09/22 11:23:34;;;;;;;0.60;0.60;;;15.80;99.90;;;;;;5007414;28;20041;-79
2022/09/22 11:26:00;;;;;;;0.63;0.63;;;15.80;99.60;;;;;;5009651;28;20050;-79
2022/09/22 11:28:42;;;;;;;0.38;0.38;;;15.90;99.90;;;;;;5008587;28;20440;-79
2022/09/22 11:31:35;;;;;;;0.47;0.47;;;16.00;99.90;;;;;;5006460;28;20057;-78
2022/09/22 11:34:24;;;;;;;1.08;0.88;;;16.20;97.30;;;;;;5005776;28;20088;-79
2022/09/22 11:37:26;;;;;;;1.48;1.13;;;16.00;97.80;;;;;;4977661;28;20033;-78
2022/09/22 11:40:11;;;;;;;0.70;0.70;;;16.20;98.00;;;;;;5009083;28;20028;-78
2022/09/22 11:42:48;;;;;;;0.65;0.55;;;16.30;97.50;;;;;;5007772;28;20471;-77
2022/09/22 11:45:29;;;;;;;0.52;0.52;;;16.40;97.30;;;;;;5005404;28;20089;-77
2022/09/22 11:48:05;;;;;;;3.22;0.65;;;16.50;96.10;;;;;;5006914;28;20022;-77
2022/09/22 11:50:42;;;;;;;1.55;0.70;;;16.60;94.90;;;;;;5021619;28;20045;-78
2022/09/22 11:53:10;;;;;;;0.22;0.22;;;16.80;94.30;;;;;;5009086;28;20382;-80
2022/09/22 11:55:48;;;;;;;1.03;0.50;;;17.20;91.50;;;;;;5012152;28;20029;-78
2022/09/22 11:58:18;;;;;;;0.32;0.32;;;17.70;87.60;;;;;;5010817;28;20125;-78
2022/09/22 12:00:54;;;;;;;0.60;0.60;;;18.00;83.90;;;;;;5010648;28;20516;-77
2022/09/22 12:03:26;;;;;;;1.88;0.50;;;19.00;76.00;;;;;;5010270;28;20517;-78
2022/09/22 12:06:02;;;;;;;0.70;0.65;;;19.90;74.20;;;;;;5008637;28;20136;-77
2022/09/22 12:08:35;;;;;;;0.20;0.20;;;21.30;66.40;;;;;;5025899;28;20034;-78
2022/09/22 12:11:04;;;;;;;0.65;0.60;;;22.20;61.70;;;;;;5010592;28;20022;-78
2022/09/22 12:13:31;;;;;;;0.80;0.65;;;23.20;56.90;;;;;;5007984;28;20210;-78
2022/09/22 12:16:14;;;;;;;1.55;0.68;;;23.80;55.10;;;;;;5009596;28;20050;-79
2022/09/22 12:18:57;;;;;;;0.63;0.63;;;24.00;53.60;;;;;;5009660;28;20493;-79
2022/09/22 12:21:55;;;;;;;0.40;0.40;;;23.40;53.00;;;;;;5010020;28;20501;-78
2022/09/22 12:24:21;;;;;;;0.85;0.50;;;23.30;53.80;;;;;;5011666;28;20026;-79
2022/09/22 12:26:48;;;;;;;0.65;0.65;;;23.90;52.30;;;;;;5012041;28;20038;-78
2022/09/22 12:29:14;;;;;;;0.70;0.60;;;27.20;51.00;;;;;;5009346;28;20467;-79
2022/09/22 12:31:43;;;;;;;1.27;0.45;;;25.60;49.70;;;;;;5007439;28;20056;-80
2022/09/22 12:34:19;;;;;;;0.32;0.32;;;27.00;46.90;;;;;;5024175;28;20022;-79
2022/09/22 12:36:47;;;;;;;0.50;0.50;;;27.40;45.40;;;;;;5009362;28;20308;-79
2022/09/22 12:39:19;;;;;;;0.55;0.30;;;27.30;46.20;;;;;;5026257;28;20069;-80
2022/09/22 12:41:57;;;;;;;0.28;0.28;;;27.50;46.10;;;;;;5010162;28;20359;-80
2022/09/22 12:44:27;;;;;;;1.00;0.30;;;27.00;45.20;;;;;;5008362;28;20052;-80
2022/09/22 12:47:00;;;;;;;0.40;0.40;;;27.90;45.00;;;;;;5008916;28;20034;-80
2022/09/22 12:49:26;;;;;;;0.20;0.20;;;28.30;44.60;;;;;;5024175;28;20022;-80
2022/09/22 12:51:58;;;;;;;0.98;0.43;;;27.80;44.00;;;;;;4977248;28;20802;-80
2022/09/22 12:54:25;;;;;;;0.30;0.30;;;27.60;44.50;;;;;;5010724;28;20033;-80
2022/09/22 12:57:01;;;;;;;0.63;0.57;;;28.10;44.40;;;;;;5009101;28;20013;-79
2022/09/22 12:59:36;;;;;;;0.70;0.70;;;27.70;44.00;;;;;;5007725;28;20030;-80
2022/09/22 13:02:14;;;;;;;0.40;0.32;;;27.10;45.20;;;;;;5009008;28;20078;-79
2022/09/22 13:05:00;;;;;;;0.77;0.50;;;26.60;44.50;;;;;;5008747;28;20473;-80
2022/09/22 13:07:42;;;;;;;1.88;0.65;;;26.30;46.20;;;;;;4968181;28;20042;-80
2022/09/22 13:10:20;;;;;;;0.20;0.20;;;25.30;45.50;;;;;;5010938;28;20037;-78
2022/09/22 13:13:01;;;;;;;0.30;0.30;;;24.60;46.00;;;;;;5008166;28;20022;-80
2022/09/22 13:15:30;;;;;;;0.68;0.68;;;24.60;47.30;;;;;;5007232;28;20033;-81
2022/09/22 13:17:57;;;;;;;1.42;0.55;;;24.40;47.10;;;;;;5023324;28;20022;-80
2022/09/22 13:20:31;;;;;;;1.85;0.40;;;24.00;47.60;;;;;;5006999;28;20040;-79
2022/09/22 13:23:15;;;;;;;0.20;0.20;;;23.70;48.10;;;;;;5007543;28;20474;-79
2022/09/22 13:25:41;;;;;;;0.47;0.47;;;23.90;48.50;;;;;;5010923;28;20026;-80
2022/09/22 13:28:26;;;;;;;0.20;0.20;;;24.30;47.90;;;;;;5008940;28;20033;-80
2022/09/22 13:31:14;;;;;;;0.32;0.32;;;25.10;46.60;;;;;;5023320;28;20149;-80
2022/09/22 13:33:40;;;;;;;3.25;0.32;;;25.20;45.90;;;;;;5007259;28;20076;-79